Time;durP1;ratioP1;P1;durP2;ratioP2;P2;SDS_P1;SDS_P2;PMS_P1;PMS_P2;Temp;Humidity;BMP_temperature;BMP_pressure;BME280_temperature;BME280_humidity;BME280_pressure;Samples;Min_cycle;Max_cycle;Signal;HPM_P1;HPM_P2
2021/04/08 00:02:01;;;;;;;10.95;6.47;;;;;;;1.04;77.63;99704.20;1712483;83;21113;-82
2021/04/08 00:04:29;;;;;;;9.88;6.17;;;;;;;1.04;77.46;99705.50;1695722;83;21155;-82
2021/04/08 00:06:55;;;;;;;10.18;6.55;;;;;;;1.06;77.72;99711.95;1720499;83;21187;-81
2021/04/08 00:09:21;;;;;;;7.72;5.85;;;;;;;1.05;77.64;99708.94;1720730;83;21152;-84
2021/04/08 00:11:47;;;;;;;9.88;6.10;;;;;;;1.08;77.66;99712.70;1720757;83;21691;-84
2021/04/08 00:14:15;;;;;;;8.80;5.00;;;;;;;1.08;77.93;99708.34;1720700;83;21122;-84
2021/04/08 00:16:41;;;;;;;7.53;5.10;;;;;;;1.09;77.84;99712.66;1720478;83;21104;-84
2021/04/08 00:19:09;;;;;;;7.12;5.25;;;;;;;1.12;77.86;99706.48;1720571;83;21489;-84
2021/04/08 00:21:36;;;;;;;12.63;6.42;;;;;;;1.12;78.15;99711.23;1720579;83;21106;-84
2021/04/08 00:24:02;;;;;;;17.95;7.53;;;;;;;1.14;78.02;99709.38;1720554;83;21144;-83
2021/04/08 00:26:28;;;;;;;17.17;7.05;;;;;;;1.14;78.07;99709.84;1744185;82;21120;-84
2021/04/08 00:28:54;;;;;;;15.80;8.10;;;;;;;1.15;78.28;99715.42;1720626;83;21155;-84
2021/04/08 00:31:21;;;;;;;20.15;9.00;;;;;;;1.14;78.20;99713.74;1712065;83;21163;-84
2021/04/08 00:33:47;;;;;;;13.50;8.38;;;;;;;1.14;78.36;99717.64;1696693;83;21141;-84
2021/04/08 00:36:13;;;;;;;11.85;6.95;;;;;;;1.13;78.53;99719.86;1720652;83;21680;-84
2021/04/08 00:38:39;;;;;;;10.18;7.53;;;;;;;1.11;78.67;99717.31;1720739;83;21126;-83
2021/04/08 00:41:05;;;;;;;10.32;6.12;;;;;;;1.12;78.85;99716.88;1720745;83;22452;-83
2021/04/08 00:43:31;;;;;;;10.00;6.42;;;;;;;1.12;79.20;99723.38;1720608;83;21201;-84
2021/04/08 00:45:57;;;;;;;8.70;6.47;;;;;;;1.13;79.37;99719.40;1720811;83;21143;-84
2021/04/08 00:48:23;;;;;;;7.62;6.35;;;;;;;1.16;79.56;99724.92;1720575;83;21034;-84
2021/04/08 00:50:50;;;;;;;10.88;7.55;;;;;;;1.18;79.46;99724.39;1720765;83;21082;-83
2021/04/08 00:53:19;;;;;;;9.78;6.75;;;;;;;1.22;79.75;99724.66;1720706;83;21058;-84
2021/04/08 00:55:49;;;;;;;8.68;6.60;;;;;;;1.27;79.64;99724.45;1719334;83;21109;-84
2021/04/08 00:58:16;;;;;;;9.55;7.40;;;;;;;1.30;79.84;99730.36;1709416;83;21086;-84
2021/04/08 01:00:43;;;;;;;9.88;7.30;;;;;;;1.31;79.81;99724.23;1718174;83;21245;-84
2021/04/08 01:03:10;;;;;;;10.43;8.10;;;;;;;1.32;79.94;99729.01;1708965;83;21110;-84
2021/04/08 01:05:37;;;;;;;11.93;8.50;;;;;;;1.32;80.09;99731.61;1720714;83;21135;-84
2021/04/08 01:08:04;;;;;;;10.60;8.38;;;;;;;1.33;80.12;99730.22;1715546;83;21147;-84
2021/04/08 01:10:30;;;;;;;10.72;7.85;;;;;;;1.33;80.42;99738.02;1695459;83;21143;-84
2021/04/08 01:13:01;;;;;;;11.05;8.83;;;;;;;1.35;80.64;99740.11;1720758;83;21139;-83
2021/04/08 01:15:29;;;;;;;10.82;7.80;;;;;;;1.35;80.57;99733.61;1719416;82;21143;-82
2021/04/08 01:18:33;;;;;;;11.05;8.65;;;;;;;1.38;80.79;99739.98;1721084;83;21110;-82
2021/04/08 01:21:49;;;;;;;9.43;7.55;;;;;;;1.42;80.63;99741.14;1720601;81;21149;-82
2021/04/08 01:24:46;;;;;;;9.68;8.08;;;;;;;1.45;80.88;99739.25;1718637;83;21133;-81
2021/04/08 01:27:44;;;;;;;10.38;8.00;;;;;;;1.45;80.79;99736.65;1679886;83;21090;-81
2021/04/08 01:30:43;;;;;;;9.98;8.15;;;;;;;1.48;81.11;99740.84;1703917;83;21124;-81
2021/04/08 01:33:20;;;;;;;10.50;7.72;;;;;;;1.50;81.07;99745.53;1721052;83;21556;-82
2021/04/08 01:35:48;;;;;;;8.03;7.22;;;;;;;1.52;80.83;99747.63;1721075;83;21070;-82
2021/04/08 01:38:23;;;;;;;9.73;6.67;;;;;;;1.54;80.98;99737.52;1720978;83;21086;-83
2021/04/08 01:40:50;;;;;;;7.92;6.95;;;;;;;1.55;81.08;99747.48;1721359;83;21300;-83
2021/04/08 01:43:22;;;;;;;9.75;7.33;;;;;;;1.55;80.77;99744.42;1721022;83;21105;-82
2021/04/08 01:45:50;;;;;;;8.98;7.15;;;;;;;1.56;80.91;99750.00;1720113;83;21074;-82
2021/04/08 01:48:17;;;;;;;10.95;7.30;;;;;;;1.56;80.87;99748.70;1720986;83;21107;-82
2021/04/08 01:50:45;;;;;;;11.80;9.13;;;;;;;1.58;80.89;99755.13;1720981;83;21216;-82
2021/04/08 01:53:15;;;;;;;8.68;7.47;;;;;;;1.58;80.86;99750.80;1721017;83;21104;-82
2021/04/08 01:55:43;;;;;;;7.62;6.55;;;;;;;1.60;80.96;99760.65;1721027;83;21195;-82
2021/04/08 01:58:11;;;;;;;8.58;7.00;;;;;;;1.61;81.01;99753.25;1720971;83;21183;-84
2021/04/08 02:00:39;;;;;;;8.68;6.87;;;;;;;1.66;80.93;99765.20;1690880;82;21284;-85
2021/04/08 02:03:06;;;;;;;8.40;6.40;;;;;;;1.66;81.10;99771.25;1728130;82;21137;-82
2021/04/08 02:05:33;;;;;;;8.00;6.28;;;;;;;1.68;81.15;99772.46;1735752;81;21099;-84
2021/04/08 02:08:00;;;;;;;9.73;7.95;;;;;;;1.68;81.15;99768.56;1741605;82;21153;-84
2021/04/08 02:10:30;;;;;;;8.88;7.22;;;;;;;1.68;81.33;99772.03;1730423;81;21300;-85
2021/04/08 02:12:57;;;;;;;9.28;6.83;;;;;;;1.69;81.17;99774.17;1715348;82;21146;-84
2021/04/08 02:15:24;;;;;;;12.28;8.70;;;;;;;1.70;81.27;99771.95;1709854;83;21301;-85
2021/04/08 02:17:55;;;;;;;11.30;8.33;;;;;;;1.68;81.59;99783.73;1723531;81;21149;-86
2021/04/08 02:20:25;;;;;;;11.48;8.03;;;;;;;1.68;81.31;99781.13;1726728;82;21138;-84
2021/04/08 02:22:54;;;;;;;12.28;8.30;;;;;;;1.69;81.19;99783.27;1720009;82;21497;-84
2021/04/08 02:25:24;;;;;;;10.85;7.53;;;;;;;1.70;81.16;99782.35;1731939;82;21156;-86
2021/04/08 02:27:52;;;;;;;9.85;7.35;;;;;;;1.72;81.26;99781.38;1719392;82;21820;-84
2021/04/08 02:30:21;;;;;;;10.05;7.42;;;;;;;1.73;81.20;99788.26;1751955;82;21624;-84
2021/04/08 02:32:48;;;;;;;10.25;7.45;;;;;;;1.75;81.56;99791.65;1744196;82;21074;-83
2021/04/08 02:35:17;;;;;;;12.53;8.33;;;;;;;1.76;81.34;99786.83;1721062;83;21100;-84
2021/04/08 02:37:45;;;;;;;10.00;7.00;;;;;;;1.78;81.17;99790.22;1720963;83;21071;-84
2021/04/08 02:40:15;;;;;;;10.80;7.53;;;;;;;1.79;81.29;99798.39;1721224;83;21701;-84
2021/04/08 02:42:41;;;;;;;8.40;6.28;;;;;;;1.79;81.46;99791.89;1721042;83;21127;-84
2021/04/08 02:45:09;;;;;;;10.00;6.80;;;;;;;1.79;81.30;99790.59;1721278;83;21293;-84
2021/04/08 02:47:36;;;;;;;10.08;7.53;;;;;;;1.80;81.40;99796.17;1720959;83;21092;-84
2021/04/08 02:50:05;;;;;;;8.23;6.33;;;;;;;1.81;81.40;99791.80;1721236;82;21148;-85
2021/04/08 02:52:39;;;;;;;9.48;5.95;;;;;;;1.80;81.68;99794.87;1720600;83;21196;-84
2021/04/08 02:55:44;;;;;;;7.87;5.53;;;;;;;1.80;81.70;99805.27;1717330;82;21323;-82
2021/04/08 02:58:14;;;;;;;8.25;5.22;;;;;;;1.79;81.67;99811.41;1718825;83;21115;-82
2021/04/08 03:00:54;;;;;;;9.78;5.75;;;;;;;1.77;81.79;99808.02;1721304;83;21547;-83
2021/04/08 03:03:24;;;;;;;9.63;5.42;;;;;;;1.78;81.77;99821.89;1692321;84;21155;-83
2021/04/08 03:05:52;;;;;;;10.32;5.50;;;;;;;1.78;81.60;99820.13;1705858;83;21160;-83
2021/04/08 03:08:20;;;;;;;10.35;5.25;;;;;;;1.78;81.64;99820.13;1721008;83;21116;-82
2021/04/08 03:10:47;;;;;;;9.73;4.80;;;;;;;1.79;81.55;99819.67;1721138;83;21258;-83
2021/04/08 03:13:15;;;;;;;7.95;5.53;;;;;;;1.80;81.70;99827.39;1713924;83;21150;-83
2021/04/08 03:15:43;;;;;;;8.28;5.53;;;;;;;1.80;81.64;99826.09;1710823;83;21661;-83
2021/04/08 03:18:17;;;;;;;7.30;5.08;;;;;;;1.81;81.53;99833.00;1720953;83;21105;-82
2021/04/08 03:20:51;;;;;;;6.95;4.75;;;;;;;1.81;81.48;99835.61;1721450;83;21516;-82
2021/04/08 03:23:20;;;;;;;9.68;4.50;;;;;;;1.83;81.31;99836.82;1695169;83;21115;-82
2021/04/08 03:25:49;;;;;;;7.95;3.75;;;;;;;1.83;81.13;99844.62;1720780;83;21083;-84
2021/04/08 03:28:17;;;;;;;11.50;4.85;;;;;;;1.83;81.25;99845.47;1709498;83;21119;-82
2021/04/08 03:30:44;;;;;;;7.60;3.70;;;;;;;1.83;81.10;99850.67;1720891;83;21144;-82
2021/04/08 03:33:12;;;;;;;8.95;4.20;;;;;;;1.84;81.14;99852.81;1720669;83;21538;-82
2021/04/08 03:35:46;;;;;;;7.62;3.17;;;;;;;1.83;81.04;99858.48;1673915;83;22116;-82
2021/04/08 03:38:16;;;;;;;8.10;4.08;;;;;;;1.82;80.77;99850.75;1721021;83;21570;-82
2021/04/08 03:40:45;;;;;;;9.53;4.03;;;;;;;1.82;80.76;99867.20;1720952;83;21110;-84
2021/04/08 03:43:15;;;;;;;6.72;3.10;;;;;;;1.83;80.82;99871.95;1721114;83;21077;-82
2021/04/08 03:45:41;;;;;;;9.53;3.47;;;;;;;1.82;80.43;99869.80;1721239;83;21153;-82
2021/04/08 03:48:12;;;;;;;10.43;3.22;;;;;;;1.83;80.26;99881.89;1720978;83;21065;-82
2021/04/08 03:50:39;;;;;;;8.43;2.87;;;;;;;1.83;79.95;99877.15;1721010;83;21311;-83
2021/04/08 03:53:06;;;;;;;8.70;3.55;;;;;;;1.83;79.51;99877.15;1690512;83;21102;-83
2021/04/08 03:55:34;;;;;;;5.65;2.55;;;;;;;1.82;79.46;99874.17;1721225;83;21112;-83
2021/04/08 03:58:03;;;;;;;10.50;3.00;;;;;;;1.82;79.33;99881.52;1720993;83;21729;-83
2021/04/08 04:00:30;;;;;;;7.20;3.22;;;;;;;1.81;79.24;99899.77;1720999;83;21173;-83
2021/04/08 04:02:56;;;;;;;8.28;2.98;;;;;;;1.81;78.63;99894.14;1720969;83;21092;-82
2021/04/08 04:05:23;;;;;;;4.55;2.08;;;;;;;1.81;78.73;99898.05;1721156;83;21258;-82
2021/04/08 04:07:51;;;;;;;5.17;1.90;;;;;;;1.81;78.77;99901.95;1721003;83;21127;-82
2021/04/08 04:10:22;;;;;;;7.03;1.98;;;;;;;1.82;78.64;99904.09;1721215;83;21139;-84
2021/04/08 04:12:50;;;;;;;11.22;2.45;;;;;;;1.81;78.39;99920.59;1711871;83;21107;-82
2021/04/08 04:15:19;;;;;;;7.97;3.00;;;;;;;1.81;78.49;99916.25;1707640;83;21262;-83
2021/04/08 04:17:45;;;;;;;7.65;1.98;;;;;;;1.80;78.34;99910.64;1720102;83;21116;-82
2021/04/08 04:20:12;;;;;;;3.98;2.08;;;;;;;1.79;78.16;99919.83;1720767;83;21090;-83
2021/04/08 04:22:42;;;;;;;4.72;1.67;;;;;;;1.79;78.18;99923.73;1721106;83;21296;-83
2021/04/08 04:25:11;;;;;;;6.28;2.20;;;;;;;1.77;78.20;99937.25;1705992;83;21170;-83
2021/04/08 04:27:37;;;;;;;15.63;4.08;;;;;;;1.77;78.16;99935.48;1692414;84;21578;-82
2021/04/08 04:30:08;;;;;;;8.08;4.05;;;;;;;1.76;78.14;99940.77;1709332;83;21088;-83
2021/04/08 04:32:35;;;;;;;8.08;2.75;;;;;;;1.74;78.22;99939.52;1721179;82;21224;-83
2021/04/08 04:35:02;;;;;;;5.47;2.90;;;;;;;1.74;78.16;99943.42;1721224;83;21580;-82
2021/04/08 04:37:28;;;;;;;6.72;3.20;;;;;;;1.73;78.33;99939.13;1700902;83;21126;-83
2021/04/08 04:39:54;;;;;;;5.33;2.42;;;;;;;1.74;78.29;99939.97;1721276;82;21281;-82
2021/04/08 04:42:20;;;;;;;6.92;2.58;;;;;;;1.74;78.42;99944.72;1721062;83;21122;-83
2021/04/08 04:44:46;;;;;;;9.28;2.83;;;;;;;1.75;78.33;99951.63;1721260;83;21208;-82
2021/04/08 04:47:12;;;;;;;5.62;2.40;;;;;;;1.75;78.35;99952.94;1709677;83;21136;-82
2021/04/08 04:49:38;;;;;;;8.45;2.20;;;;;;;1.75;78.35;99949.03;1706137;83;21262;-83
2021/04/08 04:52:05;;;;;;;7.25;2.58;;;;;;;1.75;78.34;99959.44;1718769;83;21251;-84
2021/04/08 04:54:31;;;;;;;5.50;2.60;;;;;;;1.77;78.37;99964.56;1692901;83;21097;-84
2021/04/08 04:56:57;;;;;;;9.15;3.47;;;;;;;1.76;78.43;99960.28;1690786;84;21281;-83
2021/04/08 04:59:23;;;;;;;13.15;4.42;;;;;;;1.77;78.40;99959.36;1704760;83;21090;-83
2021/04/08 05:01:49;;;;;;;11.75;3.40;;;;;;;1.77;78.50;99960.66;1699908;83;21255;-83
2021/04/08 05:04:16;;;;;;;9.40;3.27;;;;;;;1.76;78.57;99965.02;1707863;83;21142;-83
2021/04/08 05:06:41;;;;;;;8.60;3.30;;;;;;;1.75;78.63;99965.94;1721241;83;21509;-83
2021/04/08 05:09:07;;;;;;;7.00;3.50;;;;;;;1.76;78.45;99963.72;1703567;83;21241;-83
2021/04/08 05:11:34;;;;;;;4.85;2.60;;;;;;;1.78;78.55;99967.58;1712902;83;21074;-83
2021/04/08 05:14:00;;;;;;;3.87;2.62;;;;;;;1.79;78.52;99975.77;1712064;83;21066;-83
2021/04/08 05:16:26;;;;;;;5.87;2.52;;;;;;;1.79;78.57;99981.80;1711610;83;21178;-83
2021/04/08 05:18:52;;;;;;;7.75;2.87;;;;;;;1.80;78.67;99976.98;1720109;83;21688;-83
2021/04/08 05:21:18;;;;;;;6.53;2.70;;;;;;;1.81;78.65;99977.39;1708389;83;21105;-83
2021/04/08 05:23:44;;;;;;;6.37;3.25;;;;;;;1.81;78.47;99987.80;1701903;83;21158;-83
2021/04/08 05:26:10;;;;;;;8.00;3.17;;;;;;;1.84;78.70;99986.80;1701698;82;21688;-83
2021/04/08 05:28:36;;;;;;;10.15;4.05;;;;;;;1.85;78.74;99982.02;1731006;81;21114;-83
2021/04/08 05:31:04;;;;;;;12.23;3.20;;;;;;;1.86;78.89;99990.20;1715203;83;21645;-83
2021/04/08 05:33:30;;;;;;;6.80;3.60;;;;;;;1.88;78.79;99995.73;1722699;82;21533;-83
2021/04/08 05:35:56;;;;;;;10.50;3.70;;;;;;;1.92;78.97;100008.16;1703490;83;21155;-83
2021/04/08 05:38:21;;;;;;;9.90;3.15;;;;;;;1.93;78.81;99998.13;1698323;83;21311;-84
2021/04/08 05:40:48;;;;;;;6.70;3.67;;;;;;;1.97;78.82;100009.25;1709805;83;21687;-83
2021/04/08 05:43:15;;;;;;;7.03;3.33;;;;;;;1.98;78.78;100007.91;1710432;83;21646;-83
2021/04/08 05:45:41;;;;;;;16.50;4.65;;;;;;;1.99;78.48;100009.59;1720303;83;21317;-83
2021/04/08 05:48:07;;;;;;;7.85;4.75;;;;;;;2.00;78.27;100014.33;1720418;82;22365;-83
2021/04/08 05:50:33;;;;;;;7.42;3.85;;;;;;;2.02;78.38;100022.94;1718275;83;21563;-83
2021/04/08 05:52:59;;;;;;;11.65;5.42;;;;;;;2.05;78.27;100025.41;1707015;83;21254;-83
2021/04/08 05:55:25;;;;;;;9.08;3.47;;;;;;;2.07;78.03;100026.17;1709853;83;21719;-83
2021/04/08 05:57:51;;;;;;;7.70;4.87;;;;;;;2.09;77.83;100030.41;1710045;83;21098;-83
2021/04/08 06:00:18;;;;;;;10.30;5.08;;;;;;;2.10;77.65;100039.06;1710885;83;21158;-83
2021/04/08 06:02:44;;;;;;;8.43;3.50;;;;;;;2.10;77.12;100041.66;1720382;83;21647;-82
2021/04/08 06:05:11;;;;;;;7.87;3.77;;;;;;;2.12;77.18;100054.17;1698048;83;21244;-83
2021/04/08 06:07:37;;;;;;;6.87;3.83;;;;;;;2.11;77.40;100057.23;1690277;84;21564;-82
2021/04/08 06:10:05;;;;;;;7.50;4.05;;;;;;;2.14;77.19;100051.06;1690410;84;21293;-83
2021/04/08 06:12:31;;;;;;;7.53;4.25;;;;;;;2.16;76.53;100063.99;1690228;85;21159;-83
2021/04/08 06:14:58;;;;;;;12.28;5.20;;;;;;;2.16;76.36;100074.41;1696193;83;21265;-81
2021/04/08 06:17:24;;;;;;;10.53;4.95;;;;;;;2.16;76.72;100057.03;1720322;82;21698;-83
2021/04/08 06:19:50;;;;;;;7.95;3.77;;;;;;;2.20;76.58;100069.00;1720571;83;21678;-82
2021/04/08 06:22:16;;;;;;;14.10;4.05;;;;;;;2.23;76.24;100067.56;1717112;83;21331;-81
2021/04/08 06:24:42;;;;;;;8.78;3.98;;;;;;;2.27;76.78;100066.98;1720330;83;21583;-82
2021/04/08 06:27:09;;;;;;;9.23;3.87;;;;;;;2.31;76.06;100081.13;1720278;83;21282;-82
2021/04/08 06:29:35;;;;;;;10.05;3.55;;;;;;;2.33;76.13;100070.16;1719965;83;21534;-81
2021/04/08 06:32:01;;;;;;;5.20;3.02;;;;;;;2.39;76.46;100077.34;1720328;83;21102;-81
2021/04/08 06:34:29;;;;;;;12.98;5.53;;;;;;;2.45;76.40;100075.31;1720471;83;21156;-81
2021/04/08 06:36:54;;;;;;;7.03;3.05;;;;;;;2.50;76.21;100081.19;1720333;83;21150;-81
2021/04/08 06:39:21;;;;;;;9.55;5.40;;;;;;;2.54;75.81;100077.99;1720586;83;21094;-81
2021/04/08 06:41:48;;;;;;;12.63;5.50;;;;;;;2.55;76.18;100082.28;1722594;81;21145;-81
2021/04/08 06:44:17;;;;;;;7.95;4.45;;;;;;;2.58;75.94;100096.47;1689979;82;21143;-81
2021/04/08 06:46:44;;;;;;;13.95;6.75;;;;;;;2.59;75.55;100099.00;1729223;82;21572;-81
2021/04/08 06:49:40;;;;;;;9.63;5.55;;;;;;;2.56;75.80;100103.50;1717111;82;21194;-81
2021/04/08 06:52:08;;;;;;;10.93;4.05;;;;;;;2.56;75.71;100119.13;1741250;81;21137;-81
2021/04/08 06:54:37;;;;;;;14.70;5.30;;;;;;;2.54;75.62;100114.00;1717944;82;21129;-81
2021/04/08 06:57:04;;;;;;;12.78;5.35;;;;;;;2.53;75.75;100105.80;1699986;83;21145;-81
2021/04/08 06:59:32;;;;;;;9.63;4.60;;;;;;;2.53;75.72;100113.62;1733500;82;21153;-82
2021/04/08 07:02:00;;;;;;;8.60;5.35;;;;;;;2.55;75.70;100121.35;1724474;82;21147;-81
2021/04/08 07:04:27;;;;;;;14.15;4.85;;;;;;;2.52;75.35;100118.41;1735424;82;21628;-82
2021/04/08 07:06:53;;;;;;;7.17;4.95;;;;;;;2.51;75.35;100127.61;1737971;82;21199;-83
2021/04/08 07:09:19;;;;;;;10.08;5.47;;;;;;;2.48;75.35;100137.70;1717095;82;21274;-82
2021/04/08 07:11:46;;;;;;;6.33;4.10;;;;;;;2.45;75.33;100136.98;1717700;83;21146;-82
2021/04/08 07:14:12;;;;;;;13.65;5.28;;;;;;;2.43;75.26;100143.54;1721288;82;21270;-82
2021/04/08 07:16:39;;;;;;;8.30;4.58;;;;;;;2.44;75.93;100142.66;1735570;81;21126;-83
2021/04/08 07:19:07;;;;;;;11.70;4.92;;;;;;;2.48;75.95;100157.69;1720798;82;21617;-81
2021/04/08 07:21:38;;;;;;;7.05;4.20;;;;;;;2.51;76.07;100154.96;1719002;83;21118;-81
2021/04/08 07:24:19;;;;;;;7.55;4.12;;;;;;;2.53;75.94;100155.72;1720221;83;21197;-82
2021/04/08 07:27:01;;;;;;;10.23;5.03;;;;;;;2.56;76.22;100161.65;1716486;82;21582;-81
2021/04/08 07:29:45;;;;;;;10.13;4.73;;;;;;;2.59;76.08;100161.98;1731976;82;21114;-82
2021/04/08 07:32:18;;;;;;;13.93;6.95;;;;;;;2.64;76.36;100168.32;1729715;80;21582;-83
2021/04/08 07:34:49;;;;;;;12.37;5.85;;;;;;;2.67;76.41;100179.91;1731509;81;21185;-82
2021/04/08 07:37:29;;;;;;;11.53;5.83;;;;;;;2.70;76.42;100178.02;1737080;81;21106;-82
2021/04/08 07:39:58;;;;;;;10.68;6.85;;;;;;;2.72;76.02;100184.00;1737898;81;21548;-83
2021/04/08 07:42:31;;;;;;;10.30;5.30;;;;;;;2.70;75.44;100187.14;1733679;82;21119;-81
2021/04/08 07:45:01;;;;;;;14.33;6.58;;;;;;;2.70;75.96;100184.54;1696188;83;21201;-83
2021/04/08 07:47:40;;;;;;;11.03;6.83;;;;;;;2.74;76.14;100193.07;1737253;81;21162;-83
2021/04/08 07:50:17;;;;;;;8.08;4.70;;;;;;;2.78;76.03;100194.62;1727904;81;21105;-83
2021/04/08 07:52:48;;;;;;;9.98;5.40;;;;;;;2.77;75.59;100200.30;1752464;81;21156;-82
2021/04/08 07:55:23;;;;;;;9.85;4.62;;;;;;;2.76;75.53;100205.56;1766288;81;21682;-82
2021/04/08 07:58:15;;;;;;;9.15;4.00;;;;;;;2.75;75.57;100216.44;1727538;83;21092;-82
2021/04/08 08:00:52;;;;;;;6.67;3.87;;;;;;;2.78;76.07;100221.98;1727406;83;21225;-82
2021/04/08 08:03:32;;;;;;;7.60;3.85;;;;;;;2.87;76.04;100222.91;1733890;81;21137;-81
2021/04/08 08:06:01;;;;;;;6.87;4.08;;;;;;;2.94;75.83;100224.34;1744220;81;21170;-82
2021/04/08 08:08:41;;;;;;;9.30;4.62;;;;;;;2.99;75.22;100235.40;1745534;81;21133;-83
2021/04/08 08:11:14;;;;;;;8.53;3.50;;;;;;;3.00;75.13;100242.78;1735210;81;21150;-83
2021/04/08 08:13:50;;;;;;;7.15;3.40;;;;;;;3.01;74.50;100241.86;1712657;82;21118;-81
2021/04/08 08:16:27;;;;;;;9.25;3.67;;;;;;;3.05;74.66;100248.17;1736061;82;21186;-83
2021/04/08 08:18:57;;;;;;;9.20;3.80;;;;;;;3.11;74.92;100250.14;1717923;83;21154;-82
2021/04/08 08:21:37;;;;;;;13.88;6.97;;;;;;;3.15;74.68;100253.84;1727598;81;21581;-81
2021/04/08 08:24:13;;;;;;;10.08;4.40;;;;;;;3.20;74.91;100251.90;1734228;82;22127;-82
2021/04/08 08:26:46;;;;;;;7.80;3.70;;;;;;;3.25;74.31;100268.64;1722345;83;21192;-84
2021/04/08 08:29:16;;;;;;;9.75;4.00;;;;;;;3.25;74.00;100256.44;1724045;81;21176;-82
2021/04/08 08:31:50;;;;;;;6.15;3.92;;;;;;;3.27;73.88;100262.45;1734524;81;21127;-82
2021/04/08 08:34:38;;;;;;;8.68;3.37;;;;;;;3.32;73.88;100274.44;1725820;81;21284;-82
2021/04/08 08:37:10;;;;;;;8.63;3.40;;;;;;;3.35;73.62;100272.53;1723949;82;21159;-83
2021/04/08 08:39:40;;;;;;;7.67;3.50;;;;;;;3.38;72.91;100279.39;1731013;81;21134;-82
2021/04/08 08:42:10;;;;;;;4.97;3.05;;;;;;;3.42;73.12;100279.20;1734968;81;21127;-81
2021/04/08 08:44:38;;;;;;;6.47;3.62;;;;;;;3.46;72.98;100285.98;1732510;81;21083;-81
2021/04/08 08:47:14;;;;;;;9.33;3.70;;;;;;;3.45;72.58;100279.05;1733775;83;21120;-81
2021/04/08 08:50:00;;;;;;;7.37;4.17;;;;;;;3.43;72.22;100296.55;1735150;81;21174;-82
2021/04/08 08:52:36;;;;;;;9.65;3.58;;;;;;;3.39;71.95;100291.50;1748095;81;21579;-82
2021/04/08 08:55:10;;;;;;;9.00;3.55;;;;;;;3.35;71.84;100304.30;1728658;82;21131;-85
2021/04/08 08:57:38;;;;;;;7.83;3.00;;;;;;;3.32;71.23;100305.73;1731071;83;21529;-85
2021/04/08 09:00:06;;;;;;;6.33;2.70;;;;;;;3.30;72.15;100305.81;1737017;81;21159;-83
2021/04/08 09:02:35;;;;;;;7.45;3.08;;;;;;;3.30;72.41;100321.46;1733042;82;21139;-84
2021/04/08 09:05:03;;;;;;;8.70;2.83;;;;;;;3.29;71.59;100319.31;1754505;81;21167;-82
2021/04/08 09:07:31;;;;;;;6.12;3.42;;;;;;;3.26;71.89;100323.35;1737180;81;21162;-81
2021/04/08 09:10:03;;;;;;;6.05;2.77;;;;;;;3.27;72.38;100322.89;1731410;82;21161;-83
2021/04/08 10:51:28;;;;;;;10.20;4.80;;;;;;;3.18;74.38;100468.00;1725869;82;21153;-81
2021/04/08 10:53:54;;;;;;;8.20;4.75;;;;;;;3.21;74.91;100476.55;1717607;82;21179;-82
2021/04/08 10:56:22;;;;;;;10.23;3.60;;;;;;;3.27;74.85;100470.25;1731876;81;21468;-82
2021/04/08 10:58:48;;;;;;;9.10;4.35;;;;;;;3.38;75.06;100467.20;1735333;81;21135;-81
2021/04/08 11:01:19;;;;;;;6.25;3.45;;;;;;;3.56;75.24;100471.68;1732261;82;21174;-81
2021/04/08 11:03:45;;;;;;;9.43;3.15;;;;;;;3.75;74.93;100470.00;1716952;82;21146;-81
2021/04/08 11:06:24;;;;;;;15.20;3.62;;;;;;;3.92;74.22;100469.75;1729184;82;21143;-82
2021/04/08 11:08:50;;;;;;;11.75;4.65;;;;;;;4.05;73.77;100473.52;1745229;81;21503;-82
2021/04/08 11:11:27;;;;;;;10.60;3.80;;;;;;;4.08;73.10;100483.84;1732036;82;21281;-82
2021/04/08 11:13:53;;;;;;;9.20;3.87;;;;;;;4.03;72.31;100493.63;1714743;82;21091;-82
2021/04/08 11:16:19;;;;;;;16.37;3.80;;;;;;;3.85;72.56;100501.79;1720811;82;21626;-81
2021/04/08 11:18:45;;;;;;;8.63;4.40;;;;;;;3.71;73.18;100491.06;1725344;81;21144;-81
2021/04/08 11:21:12;;;;;;;7.87;3.40;;;;;;;3.61;73.44;100493.20;1711726;81;21301;-81
2021/04/08 11:23:38;;;;;;;8.30;3.47;;;;;;;3.55;73.79;100494.75;1734787;81;21185;-81
2021/04/08 11:26:07;;;;;;;23.83;8.75;;;;;;;3.56;74.31;100498.23;1731792;82;21139;-81
2021/04/08 11:28:41;;;;;;;11.08;4.42;;;;;;;3.63;74.72;100488.78;1727721;83;21168;-80
2021/04/08 11:31:17;;;;;;;11.83;5.60;;;;;;;3.73;74.71;100496.61;1757856;81;21138;-80
2021/04/08 11:33:44;;;;;;;14.55;8.10;;;;;;;3.87;74.86;100493.88;1730038;82;21127;-83
2021/04/08 11:36:21;;;;;;;10.85;4.37;;;;;;;4.00;74.83;100493.75;1733034;82;21339;-80
2021/04/08 11:38:48;;;;;;;10.18;5.42;;;;;;;4.15;74.48;100500.09;1754570;81;21743;-81
2021/04/08 11:41:15;;;;;;;8.10;4.83;;;;;;;4.28;74.43;100499.08;1734416;81;21146;-81
2021/04/08 11:43:49;;;;;;;9.30;3.98;;;;;;;4.36;73.72;100494.37;1729698;81;21147;-81
2021/04/08 11:46:37;;;;;;;7.17;3.12;;;;;;;4.44;73.49;100490.95;1717108;83;21287;-80
2021/04/08 11:49:19;;;;;;;9.70;4.85;;;;;;;4.50;73.16;100497.67;1732496;81;21721;-81
2021/04/08 11:51:48;;;;;;;13.70;4.10;;;;;;;4.57;73.23;100500.41;1730054;83;21201;-81
2021/04/08 11:54:16;;;;;;;8.68;5.10;;;;;;;4.70;73.35;100498.92;1740305;81;21115;-81
2021/04/08 11:56:44;;;;;;;12.70;4.00;;;;;;;4.87;72.95;100488.56;1711303;83;21534;-82
2021/04/08 11:59:21;;;;;;;9.93;3.85;;;;;;;5.02;72.09;100500.06;1732167;82;21159;-82
2021/04/08 12:01:53;;;;;;;8.83;3.58;;;;;;;5.04;71.34;100503.47;1716019;81;21617;-81
2021/04/08 12:04:26;;;;;;;8.65;4.40;;;;;;;5.00;71.44;100500.62;1722792;83;21280;-81
2021/04/08 12:07:06;;;;;;;7.37;4.17;;;;;;;4.98;71.03;100508.14;1734763;81;21111;-81
2021/04/08 12:09:43;;;;;;;6.25;3.12;;;;;;;4.93;71.06;100513.56;1730674;81;21312;-81
2021/04/08 12:12:10;;;;;;;6.85;2.60;;;;;;;4.84;70.78;100517.94;1740634;81;21147;-80
2021/04/08 12:15:04;;;;;;;8.50;4.20;;;;;;;4.76;70.82;100514.34;1728279;83;21145;-81
2021/04/08 12:17:32;;;;;;;6.25;2.45;;;;;;;4.71;70.49;100521.56;1717965;83;21168;-80
2021/04/08 12:20:18;;;;;;;7.50;2.92;;;;;;;4.66;70.31;100513.91;1728527;82;21918;-81
2021/04/08 12:22:44;;;;;;;7.17;2.65;;;;;;;4.61;69.46;100516.36;1727705;81;21111;-80
2021/04/08 12:25:14;;;;;;;10.48;3.75;;;;;;;4.56;70.16;100520.47;1731840;82;21099;-80
2021/04/08 12:27:40;;;;;;;10.03;3.87;;;;;;;4.54;70.69;100521.02;1731668;81;21143;-80
2021/04/08 12:30:09;;;;;;;12.15;4.60;;;;;;;4.55;70.74;100526.62;1732289;82;21174;-80
2021/04/08 12:32:36;;;;;;;20.02;5.67;;;;;;;4.57;71.10;100529.16;1731432;82;21139;-80
2021/04/08 12:35:03;;;;;;;5.85;2.55;;;;;;;4.60;70.91;100536.39;1729448;83;21135;-80
2021/04/08 12:37:29;;;;;;;7.20;2.92;;;;;;;4.61;70.62;100537.27;1728008;83;21133;-80
2021/04/08 12:39:57;;;;;;;6.37;3.17;;;;;;;4.61;70.54;100539.42;1727978;81;21126;-80
2021/04/08 12:42:23;;;;;;;9.50;3.42;;;;;;;4.64;70.85;100536.67;1750172;81;21127;-81
2021/04/08 12:44:49;;;;;;;7.42;2.72;;;;;;;4.68;69.62;100546.06;1733940;83;21571;-80
2021/04/08 12:47:16;;;;;;;11.18;3.02;;;;;;;4.68;68.62;100542.14;1712648;81;21300;-80
2021/04/08 12:49:42;;;;;;;11.10;3.42;;;;;;;4.74;70.04;100548.87;1742405;81;21147;-80
2021/04/08 12:52:08;;;;;;;9.25;2.58;;;;;;;4.81;69.64;100550.29;1744659;81;21290;-80
2021/04/08 12:54:35;;;;;;;7.65;2.45;;;;;;;4.88;69.42;100546.94;1748797;81;21171;-80
2021/04/08 12:57:02;;;;;;;9.20;3.22;;;;;;;4.91;69.42;100553.34;1727968;83;21106;-80
2021/04/08 12:59:29;;;;;;;9.23;2.30;;;;;;;4.91;69.65;100554.64;1718002;82;21518;-80
2021/04/08 13:01:55;;;;;;;7.00;3.02;;;;;;;4.86;68.85;100554.83;1725546;81;21603;-80
2021/04/08 13:04:21;;;;;;;36.00;19.55;;;;;;;4.84;69.30;100559.77;1733013;81;21329;-80
2021/04/08 13:06:47;;;;;;;10.38;4.75;;;;;;;4.79;69.34;100560.42;1728949;81;21649;-80
2021/04/08 13:09:13;;;;;;;18.80;8.75;;;;;;;4.73;69.56;100565.45;1762727;81;21299;-80
2021/04/08 13:11:40;;;;;;;29.10;14.25;;;;;;;4.72;69.63;100560.31;1737560;81;21119;-80
2021/04/08 13:14:07;;;;;;;37.98;16.27;;;;;;;4.72;69.73;100570.77;1733200;81;21173;-80
2021/04/08 13:16:34;;;;;;;48.13;22.27;;;;;;;4.73;68.89;100578.53;1736393;82;21154;-80
2021/04/08 13:19:02;;;;;;;61.40;31.35;;;;;;;4.73;68.97;100585.52;1758201;81;21185;-80
2021/04/08 13:21:28;;;;;;;19.20;11.90;;;;;;;4.69;69.08;100588.73;1700577;83;21292;-80
2021/04/08 13:23:55;;;;;;;17.27;12.07;;;;;;;4.67;69.50;100588.81;1727462;83;21557;-81
2021/04/08 13:26:23;;;;;;;47.43;22.22;;;;;;;4.60;69.39;100587.36;1730647;82;21281;-80